Flight Track Log - Related Links

Times and Time Zones

All times are in EDT time to prevent confusion due to time zone crossing. See the EJA922 flight status page for this flight to view local times or setup timezone preferences in your user account.

Time Position Orientation Groundspeed Altitude Reporting Facility
EDT Latitude Longitude Course Direction KTS MPH feet Rate Location/Type
Wed 07:43:27 AM 39.8500 -105.0500 260° West 244 281 9,000  Level Denver TRACON
Wed 07:44:27 AM 39.7833 -105.0167 159° South 259 298 10,200 1,500 Climbing Denver TRACON
Wed 07:45:15 AM 39.7300 -105.0011 167° South 248 285 11,700 2,333 Climbing Denver Center
Wed 07:46:15 AM 39.6722 -105.0508 214° Southwest 275 316 14,400 3,000 Climbing Denver Center
Wed 07:47:15 AM 39.6567 -105.1631 260° West 303 349 17,700 2,777 Climbing Denver Center
Wed 07:48:00 AM 39.8270 -105.7135 260° West  Level Estimated
Wed 07:48:16 AM 39.6444 -105.2650 261° West 289 333 20,000  Level Denver Center
Wed 07:49:16 AM 39.6294 -105.3875 261° West 357 411 20,000  Level Denver Center
Wed 07:50:16 AM 39.6139 -105.5225 262° West 382 440 20,000  Level Denver Center
Wed 07:51:17 AM 39.5961 -105.6644 261° West 402 463 20,000  Level Denver Center
Wed 07:52:17 AM 39.5783 -105.8072 261° West 399 459 20,000  Level Denver Center
Wed 07:53:17 AM 39.5647 -105.9283 262° West 371 427 20,000  Level Denver Center
Wed 07:54:17 AM 39.5483 -106.0558 261° West 362 417 20,000  Level Denver Center
Wed 07:55:18 AM 39.5325 -106.1806 261° West 359 413 20,000  Level Denver Center
Wed 07:56:18 AM 39.5161 -106.3097 261° West 362 417 20,000  Level Denver Center
Wed 07:57:18 AM 39.4994 -106.4356 260° West 356 410 20,000 -198 Level Denver Center
Wed 07:58:19 AM 39.4817 -106.5725 260° West 356 410 19,600 -744 Descending Denver Center
Wed 07:59:19 AM 39.4636 -106.7072 260° West 342 394 18,500 -1,150 Descending Denver Center
Wed 08:00:19 AM 39.4503 -106.8106 261° West 310 357 17,300 -1,388 Descending Denver Center
Wed 08:01:20 AM 39.4386 -106.9011 261° West 271 312 15,700 -1,587 Descending Denver Center
Wed 08:02:20 AM 39.4708 -106.9894 295° West 260 299 14,100 -843 Descending Denver Center
Wed 08:03:21 AM 39.5000 -107.0697 295° West 244 281 14,000 -50 Descending Denver Center
Wed 08:04:21 AM 39.5239 -107.1397 294° West 215 247 14,000 -150 Level Denver Center
Wed 08:05:21 AM 39.5369 -107.2042 285° West 199 229 13,700 -496 Descending Denver Center
Wed 08:06:22 AM 39.5367 -107.2769 270° West 183 211 13,000 -843 Descending Denver Center
Wed 08:07:22 AM 39.5336 -107.3386 266° West 179 206 12,000 -992 Descending Denver Center
Wed 08:08:23 AM 39.5328 -107.3997 269° West 179 206 11,000 -984 Descending Denver Center

Login

Don't have an account? Register now (free) for customized features, flight alerts, and more!